sensor_id;sensor_type;location;lat;lon;timestamp;pressure;altitude;pressure_sealevel;temperature;humidity
61318;BME280;47201;40.428;-8.436;2023-05-02T00:00:46;100744.75;;;14.06;100.00
61318;BME280;47201;40.428;-8.436;2023-05-02T00:03:06;100742.94;;;14.08;100.00
61318;BME280;47201;40.428;-8.436;2023-05-02T00:05:25;100738.44;;;14.18;100.00
61318;BME280;47201;40.428;-8.436;2023-05-02T00:07:26;100731.44;;;14.16;100.00
61318;BME280;47201;40.428;-8.436;2023-05-02T00:09:27;100723.53;;;14.16;100.00
61318;BME280;47201;40.428;-8.436;2023-05-02T00:11:28;100714.84;;;14.14;100.00
61318;BME280;47201;40.428;-8.436;2023-05-02T00:13:28;100705.25;;;14.09;100.00
61318;BME280;47201;40.428;-8.436;2023-05-02T00:15:48;100700.88;;;14.08;100.00
61318;BME280;47201;40.428;-8.436;2023-05-02T00:18:07;100701.03;;;14.01;100.00
61318;BME280;47201;40.428;-8.436;2023-05-02T00:20:08;100705.53;;;13.92;100.00
61318;BME280;47201;40.428;-8.436;2023-05-02T00:22:14;100704.75;;;13.86;100.00
61318;BME280;47201;40.428;-8.436;2023-05-02T00:24:16;100709.09;;;13.87;100.00
61318;BME280;47201;40.428;-8.436;2023-05-02T00:26:16;100704.66;;;13.90;100.00
61318;BME280;47201;40.428;-8.436;2023-05-02T00:28:18;100699.31;;;13.98;100.00
61318;BME280;47201;40.428;-8.436;2023-05-02T00:30:22;100698.34;;;14.02;100.00
61318;BME280;47201;40.428;-8.436;2023-05-02T00:32:23;100693.97;;;14.03;100.00
61318;BME280;47201;40.428;-8.436;2023-05-02T00:34:43;100695.59;;;14.11;100.00
61318;BME280;47201;40.428;-8.436;2023-05-02T00:37:03;100694.63;;;14.16;100.00
61318;BME280;47201;40.428;-8.436;2023-05-02T00:39:22;100683.28;;;14.12;100.00
61318;BME280;47201;40.428;-8.436;2023-05-02T00:41:23;100687.00;;;14.00;100.00
61318;BME280;47201;40.428;-8.436;2023-05-02T00:43:42;100683.69;;;13.89;100.00
61318;BME280;47201;40.428;-8.436;2023-05-02T00:46:01;100677.72;;;13.79;100.00
61318;BME280;47201;40.428;-8.436;2023-05-02T00:48:02;100671.66;;;13.72;100.00
61318;BME280;47201;40.428;-8.436;2023-05-02T00:50:03;100670.09;;;13.62;100.00
61318;BME280;47201;40.428;-8.436;2023-05-02T00:52:23;100671.19;;;13.45;100.00
61318;BME280;47201;40.428;-8.436;2023-05-02T00:54:43;100673.06;;;13.36;100.00
61318;BME280;47201;40.428;-8.436;2023-05-02T00:56:44;100667.00;;;13.29;100.00
61318;BME280;47201;40.428;-8.436;2023-05-02T00:58:44;100661.78;;;13.27;100.00
61318;BME280;47201;40.428;-8.436;2023-05-02T01:03:09;100659.97;;;13.29;100.00
61318;BME280;47201;40.428;-8.436;2023-05-02T01:05:29;100655.63;;;13.27;100.00
61318;BME280;47201;40.428;-8.436;2023-05-02T01:12:05;100651.41;;;13.18;100.00
61318;BME280;47201;40.428;-8.436;2023-05-02T01:14:10;100643.41;;;13.26;100.00
61318;BME280;47201;40.428;-8.436;2023-05-02T01:16:11;100631.00;;;13.40;100.00
61318;BME280;47201;40.428;-8.436;2023-05-02T01:18:13;100630.03;;;13.47;100.00
61318;BME280;47201;40.428;-8.436;2023-05-02T01:20:16;100627.44;;;13.44;100.00
61318;BME280;47201;40.428;-8.436;2023-05-02T01:22:19;100625.75;;;13.37;100.00
61318;BME280;47201;40.428;-8.436;2023-05-02T01:24:25;100632.84;;;13.32;100.00
61318;BME280;47201;40.428;-8.436;2023-05-02T01:26:31;100628.47;;;13.29;100.00
61318;BME280;47201;40.428;-8.436;2023-05-02T01:30:53;100627.69;;;13.24;100.00
61318;BME280;47201;40.428;-8.436;2023-05-02T01:33:14;100618.13;;;13.18;100.00
61318;BME280;47201;40.428;-8.436;2023-05-02T01:35:17;100619.06;;;13.14;100.00
61318;BME280;47201;40.428;-8.436;2023-05-02T01:37:17;100615.63;;;13.11;100.00
61318;BME280;47201;40.428;-8.436;2023-05-02T01:39:19;100610.38;;;13.11;100.00
61318;BME280;47201;40.428;-8.436;2023-05-02T01:41:21;100608.63;;;13.10;100.00
61318;BME280;47201;40.428;-8.436;2023-05-02T01:43:22;100608.63;;;13.10;100.00
61318;BME280;47201;40.428;-8.436;2023-05-02T01:45:23;100603.34;;;13.11;100.00
61318;BME280;47201;40.428;-8.436;2023-05-02T01:47:44;100598.06;;;13.14;100.00
61318;BME280;47201;40.428;-8.436;2023-05-02T01:49:45;100598.09;;;13.13;100.00
61318;BME280;47201;40.428;-8.436;2023-05-02T01:51:48;100591.97;;;13.14;100.00
61318;BME280;47201;40.428;-8.436;2023-05-02T01:53:49;100597.22;;;13.12;100.00
61318;BME280;47201;40.428;-8.436;2023-05-02T01:55:51;100597.22;;;13.12;100.00
61318;BME280;47201;40.428;-8.436;2023-05-02T01:57:52;100605.16;;;13.08;100.00
61318;BME280;47201;40.428;-8.436;2023-05-02T01:59:54;100596.31;;;13.16;100.00
61318;BME280;47201;40.428;-8.436;2023-05-02T02:01:56;100580.59;;;13.13;100.00
61318;BME280;47201;40.428;-8.436;2023-05-02T02:04:14;100580.66;;;13.10;100.00
61318;BME280;47201;40.428;-8.436;2023-05-02T02:06:16;100578.09;;;13.06;100.00
61318;BME280;47201;40.428;-8.436;2023-05-02T02:08:18;100574.66;;;12.99;100.00
61318;BME280;47201;40.428;-8.436;2023-05-02T02:10:19;100582.63;;;12.93;100.00
61318;BME280;47201;40.428;-8.436;2023-05-02T02:12:25;100576.56;;;12.86;100.00
61318;BME280;47201;40.428;-8.436;2023-05-02T02:14:26;100568.78;;;12.83;100.00
61318;BME280;47201;40.428;-8.436;2023-05-02T02:16:49;100574.94;;;12.77;100.00
61318;BME280;47201;40.428;-8.436;2023-05-02T02:18:50;100573.31;;;12.68;100.00
61318;BME280;47201;40.428;-8.436;2023-05-02T02:20:54;100568.97;;;12.66;100.00
61318;BME280;47201;40.428;-8.436;2023-05-02T02:23:14;100565.56;;;12.59;100.00
61318;BME280;47201;40.428;-8.436;2023-05-02T02:25:34;100564.63;;;12.63;100.00
61318;BME280;47201;40.428;-8.436;2023-05-02T02:27:38;100563.69;;;12.69;100.00
61318;BME280;47201;40.428;-8.436;2023-05-02T02:29:58;100563.72;;;12.66;100.00
61318;BME280;47201;40.428;-8.436;2023-05-02T02:31:58;100555.00;;;12.65;100.00
61318;BME280;47201;40.428;-8.436;2023-05-02T02:33:59;100559.41;;;12.62;100.00
61318;BME280;47201;40.428;-8.436;2023-05-02T02:38:35;100555.13;;;12.54;100.00
61318;BME280;47201;40.428;-8.436;2023-05-02T02:40:44;100552.59;;;12.48;100.00
61318;BME280;47201;40.428;-8.436;2023-05-02T02:45:16;100551.78;;;12.43;100.00
61318;BME280;47201;40.428;-8.436;2023-05-02T02:54:42;100532.25;;;12.67;100.00
61318;BME280;47201;40.428;-8.436;2023-05-02T02:57:05;100528.78;;;12.64;100.00
61318;BME280;47201;40.428;-8.436;2023-05-02T02:59:15;100528.72;;;12.70;100.00
61318;BME280;47201;40.428;-8.436;2023-05-02T03:01:19;100525.19;;;12.71;100.00
61318;BME280;47201;40.428;-8.436;2023-05-02T03:03:21;100522.59;;;12.69;100.00
61318;BME280;47201;40.428;-8.436;2023-05-02T03:05:41;100520.88;;;12.67;100.00
61318;BME280;47201;40.428;-8.436;2023-05-02T03:07:43;100513.97;;;12.61;100.00
61318;BME280;47201;40.428;-8.436;2023-05-02T03:09:47;100521.00;;;12.56;100.00
61318;BME280;47201;40.428;-8.436;2023-05-02T03:11:53;100521.09;;;12.50;100.00
61318;BME280;47201;40.428;-8.436;2023-05-02T03:13:54;100518.53;;;12.45;100.00
61318;BME280;47201;40.428;-8.436;2023-05-02T03:18:16;100517.81;;;12.31;100.00
61318;BME280;47201;40.428;-8.436;2023-05-02T03:20:17;100517.81;;;12.34;100.00
61318;BME280;47201;40.428;-8.436;2023-05-02T03:22:17;100518.59;;;12.39;100.00
61318;BME280;47201;40.428;-8.436;2023-05-02T03:24:37;100523.00;;;12.37;100.00
61318;BME280;47201;40.428;-8.436;2023-05-02T03:26:56;100519.44;;;12.43;100.00
61318;BME280;47201;40.428;-8.436;2023-05-02T03:29:02;100523.78;;;12.44;100.00
61318;BME280;47201;40.428;-8.436;2023-05-02T03:31:08;100521.06;;;12.51;100.00
61318;BME280;47201;40.428;-8.436;2023-05-02T03:33:12;100514.84;;;12.59;100.00
61318;BME280;47201;40.428;-8.436;2023-05-02T03:35:16;100508.72;;;12.61;100.00
61318;BME280;47201;40.428;-8.436;2023-05-02T03:37:19;100519.25;;;12.58;100.00
61318;BME280;47201;40.428;-8.436;2023-05-02T03:39:19;100507.94;;;12.51;100.00
61318;BME280;47201;40.428;-8.436;2023-05-02T03:41:21;100506.28;;;12.47;100.00
61318;BME280;47201;40.428;-8.436;2023-05-02T03:43:43;100506.34;;;12.41;100.00
61318;BME280;47201;40.428;-8.436;2023-05-02T03:45:43;100509.00;;;12.40;100.00
61318;BME280;47201;40.428;-8.436;2023-05-02T03:47:44;100510.91;;;12.25;100.00
61318;BME280;47201;40.428;-8.436;2023-05-02T03:49:45;100492.63;;;12.19;100.00
61318;BME280;47201;40.428;-8.436;2023-05-02T03:52:07;100496.13;;;12.18;100.00
61318;BME280;47201;40.428;-8.436;2023-05-02T03:54:26;100487.47;;;12.11;100.00
61318;BME280;47201;40.428;-8.436;2023-05-02T03:56:28;100492.63;;;12.19;100.00
61318;BME280;47201;40.428;-8.436;2023-05-02T03:58:43;100487.50;;;12.08;100.00
61318;BME280;47201;40.428;-8.436;2023-05-02T04:00:45;100483.16;;;12.07;100.00
61318;BME280;47201;40.428;-8.436;2023-05-02T04:02:46;100476.19;;;12.04;100.00
61318;BME280;47201;40.428;-8.436;2023-05-02T04:04:50;100472.75;;;12.02;100.00
61318;BME280;47201;40.428;-8.436;2023-05-02T04:06:53;100473.63;;;12.00;100.00
61318;BME280;47201;40.428;-8.436;2023-05-02T04:08:54;100468.44;;;11.97;100.00
61318;BME280;47201;40.428;-8.436;2023-05-02T04:10:55;100471.91;;;11.97;100.00
61318;BME280;47201;40.428;-8.436;2023-05-02T04:12:56;100473.66;;;11.98;100.00
61318;BME280;47201;40.428;-8.436;2023-05-02T04:14:56;100478.00;;;11.96;100.00
61318;BME280;47201;40.428;-8.436;2023-05-02T04:17:01;100479.78;;;11.94;100.00
61318;BME280;47201;40.428;-8.436;2023-05-02T04:19:20;100481.53;;;11.92;100.00
61318;BME280;47201;40.428;-8.436;2023-05-02T04:21:41;100480.66;;;11.93;100.00
61318;BME280;47201;40.428;-8.436;2023-05-02T04:24:01;100485.00;;;11.99;100.00
61318;BME280;47201;40.428;-8.436;2023-05-02T04:26:21;100485.84;;;12.01;100.00
61318;BME280;47201;40.428;-8.436;2023-05-02T04:28:29;100492.81;;;12.02;100.00
61318;BME280;47201;40.428;-8.436;2023-05-02T04:30:30;100481.44;;;12.04;100.00
61318;BME280;47201;40.428;-8.436;2023-05-02T04:32:36;100485.78;;;12.09;100.00
61318;BME280;47201;40.428;-8.436;2023-05-02T04:34:38;100481.38;;;12.12;100.00
61318;BME280;47201;40.428;-8.436;2023-05-02T04:36:39;100490.00;;;12.19;100.00
61318;BME280;47201;40.428;-8.436;2023-05-02T04:38:42;100486.47;;;12.23;100.00
61318;BME280;47201;40.428;-8.436;2023-05-02T04:40:43;100483.81;;;12.25;100.00
61318;BME280;47201;40.428;-8.436;2023-05-02T04:42:44;100487.28;;;12.28;100.00
61318;BME280;47201;40.428;-8.436;2023-05-02T04:45:03;100483.75;;;12.31;100.00
61318;BME280;47201;40.428;-8.436;2023-05-02T04:47:23;100477.66;;;12.30;100.00
61318;BME280;47201;40.428;-8.436;2023-05-02T04:49:23;100482.84;;;12.33;100.00
61318;BME280;47201;40.428;-8.436;2023-05-02T04:51:24;100467.00;;;12.43;100.00
61318;BME280;47201;40.428;-8.436;2023-05-02T04:53:24;100471.25;;;12.51;100.00
61318;BME280;47201;40.428;-8.436;2023-05-02T04:55:25;100472.97;;;12.56;100.00
61318;BME280;47201;40.428;-8.436;2023-05-02T04:57:26;100469.44;;;12.55;100.00
61318;BME280;47201;40.428;-8.436;2023-05-02T04:59:31;100475.59;;;12.52;100.00
61318;BME280;47201;40.428;-8.436;2023-05-02T05:01:33;100471.13;;;12.61;100.00
61318;BME280;47201;40.428;-8.436;2023-05-02T05:03:35;100469.19;;;12.75;100.00
61318;BME280;47201;40.428;-8.436;2023-05-02T05:05:55;100469.28;;;12.69;100.00
61318;BME280;47201;40.428;-8.436;2023-05-02T05:08:14;100471.13;;;12.61;100.00
61318;BME280;47201;40.428;-8.436;2023-05-02T05:10:16;100467.75;;;12.52;100.00
61318;BME280;47201;40.428;-8.436;2023-05-02T05:12:19;100472.25;;;12.43;100.00
61318;BME280;47201;40.428;-8.436;2023-05-02T05:14:20;100472.41;;;12.30;100.00
61318;BME280;47201;40.428;-8.436;2023-05-02T05:16:40;100457.69;;;12.18;100.00
61318;BME280;47201;40.428;-8.436;2023-05-02T05:18:59;100461.34;;;12.06;100.00
61318;BME280;47201;40.428;-8.436;2023-05-02T05:21:00;100461.34;;;12.06;100.00
61318;BME280;47201;40.428;-8.436;2023-05-02T05:23:02;100455.16;;;12.11;100.00
61318;BME280;47201;40.428;-8.436;2023-05-02T05:25:03;100448.09;;;12.17;100.00
61318;BME280;47201;40.428;-8.436;2023-05-02T05:27:06;100445.41;;;12.24;100.00
61318;BME280;47201;40.428;-8.436;2023-05-02T05:29:06;100431.31;;;12.32;100.00
61318;BME280;47201;40.428;-8.436;2023-05-02T05:31:13;100438.13;;;12.44;100.00
61318;BME280;47201;40.428;-8.436;2023-05-02T05:33:35;100429.25;;;12.54;100.00
61318;BME280;47201;40.428;-8.436;2023-05-02T05:35:55;100425.78;;;12.54;100.00
61318;BME280;47201;40.428;-8.436;2023-05-02T05:37:56;100432.69;;;12.60;100.00
61318;BME280;47201;40.428;-8.436;2023-05-02T05:39:56;100430.75;;;12.73;100.00
61318;BME280;47201;40.428;-8.436;2023-05-02T05:42:16;100426.13;;;12.89;100.00
61318;BME280;47201;40.428;-8.436;2023-05-02T05:44:38;100425.88;;;13.06;100.00
61318;BME280;47201;40.428;-8.436;2023-05-02T05:46:56;100422.09;;;13.24;100.00
61318;BME280;47201;40.428;-8.436;2023-05-02T05:49:00;100423.47;;;13.45;100.00
61318;BME280;47201;40.428;-8.436;2023-05-02T05:51:05;100436.22;;;13.68;100.00
61318;BME280;47201;40.428;-8.436;2023-05-02T05:53:06;100431.50;;;13.84;100.00
61318;BME280;47201;40.428;-8.436;2023-05-02T05:55:08;100430.31;;;14.01;100.00
61318;BME280;47201;40.428;-8.436;2023-05-02T05:57:27;100435.16;;;14.21;100.00
61318;BME280;47201;40.428;-8.436;2023-05-02T05:59:46;100436.50;;;14.40;100.00
61318;BME280;47201;40.428;-8.436;2023-05-02T06:02:07;100433.34;;;14.64;100.00
61318;BME280;47201;40.428;-8.436;2023-05-02T06:04:08;100436.44;;;14.84;100.00
61318;BME280;47201;40.428;-8.436;2023-05-02T06:06:13;100434.28;;;15.00;100.00
61318;BME280;47201;40.428;-8.436;2023-05-02T06:08:15;100433.97;;;15.13;100.00
61318;BME280;47201;40.428;-8.436;2023-05-02T06:10:15;100436.31;;;15.25;100.00
61318;BME280;47201;40.428;-8.436;2023-05-02T06:12:17;100430.66;;;15.41;100.00
61318;BME280;47201;40.428;-8.436;2023-05-02T06:14:19;100435.66;;;15.51;100.00
61318;BME280;47201;40.428;-8.436;2023-05-02T06:16:28;100430.16;;;15.59;100.00
61318;BME280;47201;40.428;-8.436;2023-05-02T06:18:29;100429.09;;;15.66;100.00
61318;BME280;47201;40.428;-8.436;2023-05-02T06:20:31;100434.13;;;15.76;100.00
61318;BME280;47201;40.428;-8.436;2023-05-02T06:22:32;100432.94;;;15.88;100.00
61318;BME280;47201;40.428;-8.436;2023-05-02T06:24:33;100435.03;;;16.08;100.00
61318;BME280;47201;40.428;-8.436;2023-05-02T06:26:52;100436.16;;;16.29;100.00
61318;BME280;47201;40.428;-8.436;2023-05-02T06:29:10;100430.91;;;16.57;100.00
61318;BME280;47201;40.428;-8.436;2023-05-02T06:31:11;100437.91;;;16.87;100.00
61318;BME280;47201;40.428;-8.436;2023-05-02T06:33:12;100430.25;;;17.07;100.00
61318;BME280;47201;40.428;-8.436;2023-05-02T06:35:12;100433.84;;;17.32;100.00
61318;BME280;47201;40.428;-8.436;2023-05-02T06:37:13;100426.22;;;17.49;100.00
61318;BME280;47201;40.428;-8.436;2023-05-02T06:39:14;100427.50;;;17.63;100.00
61318;BME280;47201;40.428;-8.436;2023-05-02T06:41:14;100424.56;;;17.70;100.00
61318;BME280;47201;40.428;-8.436;2023-05-02T06:43:15;100421.38;;;17.86;100.00
61318;BME280;47201;40.428;-8.436;2023-05-02T06:45:16;100417.72;;;17.90;100.00
61318;BME280;47201;40.428;-8.436;2023-05-02T06:47:16;100429.75;;;17.99;100.00
61318;BME280;47201;40.428;-8.436;2023-05-02T06:49:17;100433.09;;;18.04;99.78
61318;BME280;47201;40.428;-8.436;2023-05-02T06:51:17;100441.16;;;18.01;95.73
61318;BME280;47201;40.428;-8.436;2023-05-02T06:53:18;100438.44;;;17.77;91.61
61318;BME280;47201;40.428;-8.436;2023-05-02T06:55:37;100436.78;;;17.74;93.49
61318;BME280;47201;40.428;-8.436;2023-05-02T06:57:38;100436.03;;;17.71;92.95
61318;BME280;47201;40.428;-8.436;2023-05-02T06:59:38;100430.06;;;17.64;92.82
61318;BME280;47201;40.428;-8.436;2023-05-02T07:01:39;100431.31;;;17.79;93.35
61318;BME280;47201;40.428;-8.436;2023-05-02T07:03:40;100432.09;;;17.81;93.16
61318;BME280;47201;40.428;-8.436;2023-05-02T07:05:41;100425.16;;;18.04;92.54
61318;BME280;47201;40.428;-8.436;2023-05-02T07:07:41;100419.84;;;18.28;91.76
61318;BME280;47201;40.428;-8.436;2023-05-02T07:09:42;100424.06;;;18.55;90.36
61318;BME280;47201;40.428;-8.436;2023-05-02T07:11:42;100427.47;;;18.81;89.76
61318;BME280;47201;40.428;-8.436;2023-05-02T07:13:43;100422.81;;;19.10;89.01
61318;BME280;47201;40.428;-8.436;2023-05-02T07:15:44;100421.88;;;19.53;86.62
61318;BME280;47201;40.428;-8.436;2023-05-02T07:17:44;100420.97;;;20.14;84.70
61318;BME280;47201;40.428;-8.436;2023-05-02T07:19:47;100410.03;;;20.77;82.65
61318;BME280;47201;40.428;-8.436;2023-05-02T07:21:48;100411.19;;;21.61;77.35
61318;BME280;47201;40.428;-8.436;2023-05-02T07:23:49;100413.94;;;22.43;74.00
61318;BME280;47201;40.428;-8.436;2023-05-02T07:25:49;100415.13;;;23.16;67.99
61318;BME280;47201;40.428;-8.436;2023-05-02T07:27:50;100420.91;;;24.12;65.35
61318;BME280;47201;40.428;-8.436;2023-05-02T07:29:50;100419.25;;;24.66;63.02
61318;BME280;47201;40.428;-8.436;2023-05-02T07:31:51;100418.69;;;24.75;61.60
61318;BME280;47201;40.428;-8.436;2023-05-02T07:33:51;100420.25;;;25.32;59.71
61318;BME280;47201;40.428;-8.436;2023-05-02T07:35:52;100418.16;;;25.76;58.56
61318;BME280;47201;40.428;-8.436;2023-05-02T07:37:56;100414.94;;;25.84;57.16
61318;BME280;47201;40.428;-8.436;2023-05-02T07:39:56;100416.13;;;25.80;57.46
61318;BME280;47201;40.428;-8.436;2023-05-02T07:41:57;100417.28;;;25.76;58.51
61318;BME280;47201;40.428;-8.436;2023-05-02T07:43:57;100419.31;;;25.98;57.14
61318;BME280;47201;40.428;-8.436;2023-05-02T07:46:17;100417.34;;;26.63;55.65
61318;BME280;47201;40.428;-8.436;2023-05-02T07:48:36;100420.22;;;26.97;54.78
61318;BME280;47201;40.428;-8.436;2023-05-02T07:50:55;100419.19;;;27.47;54.04
61318;BME280;47201;40.428;-8.436;2023-05-02T07:53:04;100430.09;;;27.79;53.49
61318;BME280;47201;40.428;-8.436;2023-05-02T07:55:05;100420.41;;;28.45;52.72
61318;BME280;47201;40.428;-8.436;2023-05-02T07:57:05;100423.06;;;28.79;52.44
61318;BME280;47201;40.428;-8.436;2023-05-02T07:59:07;100434.94;;;28.97;51.32
61318;BME280;47201;40.428;-8.436;2023-05-02T08:01:09;100428.59;;;28.99;52.66
61318;BME280;47201;40.428;-8.436;2023-05-02T08:03:09;100431.09;;;28.68;53.38
61318;BME280;47201;40.428;-8.436;2023-05-02T08:05:10;100433.78;;;29.11;53.84
61318;BME280;47201;40.428;-8.436;2023-05-02T08:07:10;100429.34;;;29.22;53.20
61318;BME280;47201;40.428;-8.436;2023-05-02T08:09:11;100431.66;;;29.69;53.99
61318;BME280;47201;40.428;-8.436;2023-05-02T08:11:11;100436.72;;;29.62;53.54
61318;BME280;47201;40.428;-8.436;2023-05-02T08:13:12;100435.44;;;29.03;57.06
61318;BME280;47201;40.428;-8.436;2023-05-02T08:15:12;100426.38;;;28.71;58.08
61318;BME280;47201;40.428;-8.436;2023-05-02T08:17:13;100425.66;;;28.69;59.93
61318;BME280;47201;40.428;-8.436;2023-05-02T08:19:14;100430.22;;;28.90;58.80
61318;BME280;47201;40.428;-8.436;2023-05-02T08:21:14;100428.47;;;29.33;58.77
61318;BME280;47201;40.428;-8.436;2023-05-02T08:23:15;100442.03;;;29.52;58.23
61318;BME280;47201;40.428;-8.436;2023-05-02T08:25:16;100430.78;;;29.26;59.15
61318;BME280;47201;40.428;-8.436;2023-05-02T08:27:16;100434.25;;;28.95;61.26
61318;BME280;47201;40.428;-8.436;2023-05-02T08:29:17;100438.72;;;28.62;62.62
61318;BME280;47201;40.428;-8.436;2023-05-02T08:31:17;100438.03;;;28.15;65.04
61318;BME280;47201;40.428;-8.436;2023-05-02T08:33:18;100443.16;;;28.41;64.29
61318;BME280;47201;40.428;-8.436;2023-05-02T08:35:18;100447.78;;;28.50;64.15
61318;BME280;47201;40.428;-8.436;2023-05-02T08:37:19;100434.66;;;28.13;65.23
61318;BME280;47201;40.428;-8.436;2023-05-02T08:39:19;100432.53;;;28.39;64.56
61318;BME280;47201;40.428;-8.436;2023-05-02T08:41:20;100428.94;;;28.73;63.26
61318;BME280;47201;40.428;-8.436;2023-05-02T08:43:21;100433.53;;;29.47;61.55
61318;BME280;47201;40.428;-8.436;2023-05-02T08:45:22;100434.69;;;29.54;61.62
61318;BME280;47201;40.428;-8.436;2023-05-02T08:47:22;100437.56;;;30.15;59.95
61318;BME280;47201;40.428;-8.436;2023-05-02T08:49:25;100437.88;;;30.72;59.22
61318;BME280;47201;40.428;-8.436;2023-05-02T08:51:27;100438.31;;;31.16;59.18
61318;BME280;47201;40.428;-8.436;2023-05-02T08:53:32;100443.38;;;31.78;57.56
61318;BME280;47201;40.428;-8.436;2023-05-02T08:55:35;100436.63;;;32.30;57.38
61318;BME280;47201;40.428;-8.436;2023-05-02T08:57:38;100441.75;;;32.97;55.56
61318;BME280;47201;40.428;-8.436;2023-05-02T08:59:41;100433.88;;;32.58;58.02
61318;BME280;47201;40.428;-8.436;2023-05-02T09:01:41;100442.38;;;32.63;59.44
61318;BME280;47201;40.428;-8.436;2023-05-02T09:03:45;100440.31;;;32.93;59.62
61318;BME280;47201;40.428;-8.436;2023-05-02T09:05:46;100428.13;;;32.89;60.93
61318;BME280;47201;40.428;-8.436;2023-05-02T09:07:51;100427.91;;;32.36;63.66
61318;BME280;47201;40.428;-8.436;2023-05-02T09:09:54;100427.09;;;32.54;64.55
61318;BME280;47201;40.428;-8.436;2023-05-02T09:11:55;100425.19;;;33.45;62.87
61318;BME280;47201;40.428;-8.436;2023-05-02T09:13:56;100420.66;;;33.45;62.90
61318;BME280;47201;40.428;-8.436;2023-05-02T09:16:37;100424.78;;;33.13;64.45
61318;BME280;47201;40.428;-8.436;2023-05-02T09:18:37;100424.25;;;31.90;68.53
61318;BME280;47201;40.428;-8.436;2023-05-02T09:20:39;100423.19;;;33.47;65.86
61318;BME280;47201;40.428;-8.436;2023-05-02T09:22:49;100427.72;;;32.10;69.61
61318;BME280;47201;40.428;-8.436;2023-05-02T09:24:53;100434.50;;;33.24;67.49
61318;BME280;47201;40.428;-8.436;2023-05-02T09:28:58;100428.66;;;34.75;64.81
61318;BME280;47201;40.428;-8.436;2023-05-02T09:31:06;100425.16;;;35.00;63.92
61318;BME280;47201;40.428;-8.436;2023-05-02T09:33:07;100432.66;;;34.38;66.05
61318;BME280;47201;40.428;-8.436;2023-05-02T09:35:08;100431.84;;;35.86;64.25
61318;BME280;47201;40.428;-8.436;2023-05-02T09:37:08;100435.75;;;36.40;63.73
61318;BME280;47201;40.428;-8.436;2023-05-02T09:39:13;100425.72;;;35.76;63.55
61318;BME280;47201;40.428;-8.436;2023-05-02T09:41:14;100431.38;;;35.66;64.11
61318;BME280;47201;40.428;-8.436;2023-05-02T09:43:17;100433.59;;;35.54;65.05
61318;BME280;47201;40.428;-8.436;2023-05-02T09:45:36;100435.81;;;35.34;65.22
61318;BME280;47201;40.428;-8.436;2023-05-02T09:47:38;100431.94;;;35.29;65.58
61318;BME280;47201;40.428;-8.436;2023-05-02T09:49:41;100434.81;;;35.52;65.64
61318;BME280;47201;40.428;-8.436;2023-05-02T09:51:42;100432.25;;;35.34;66.40
61318;BME280;47201;40.428;-8.436;2023-05-02T09:53:43;100429.19;;;34.87;67.04
61318;BME280;47201;40.428;-8.436;2023-05-02T09:55:44;100425.31;;;34.90;67.25
61318;BME280;47201;40.428;-8.436;2023-05-02T09:57:45;100408.88;;;35.00;68.31
61318;BME280;47201;40.428;-8.436;2023-05-02T09:59:52;100428.53;;;35.02;67.93
61318;BME280;47201;40.428;-8.436;2023-05-02T10:01:56;100426.84;;;34.33;69.24
61318;BME280;47201;40.428;-8.436;2023-05-02T10:03:57;100421.53;;;34.74;69.51
61318;BME280;47201;40.428;-8.436;2023-05-02T10:05:58;100411.88;;;34.80;69.64
61318;BME280;47201;40.428;-8.436;2023-05-02T10:08:17;100417.28;;;34.55;69.79
61318;BME280;47201;40.428;-8.436;2023-05-02T10:10:37;100416.88;;;34.42;70.84
61318;BME280;47201;40.428;-8.436;2023-05-02T10:12:38;100420.38;;;35.02;69.77
61318;BME280;47201;40.428;-8.436;2023-05-02T10:14:39;100420.00;;;34.80;69.90
61318;BME280;47201;40.428;-8.436;2023-05-02T10:16:45;100413.25;;;34.84;71.07
61318;BME280;47201;40.428;-8.436;2023-05-02T10:18:47;100418.00;;;35.32;70.17
61318;BME280;47201;40.428;-8.436;2023-05-02T10:20:55;100405.56;;;35.62;69.80
61318;BME280;47201;40.428;-8.436;2023-05-02T10:22:58;100409.56;;;35.99;69.61
61318;BME280;47201;40.428;-8.436;2023-05-02T10:24:58;100408.03;;;35.88;69.79
61318;BME280;47201;40.428;-8.436;2023-05-02T10:27:01;100402.53;;;36.05;70.00
61318;BME280;47201;40.428;-8.436;2023-05-02T10:29:03;100400.81;;;36.12;70.01
61318;BME280;47201;40.428;-8.436;2023-05-02T10:31:04;100406.13;;;36.37;69.49
61318;BME280;47201;40.428;-8.436;2023-05-02T10:33:05;100405.06;;;36.15;70.05
61318;BME280;47201;40.428;-8.436;2023-05-02T10:35:06;100402.34;;;35.58;71.51
61318;BME280;47201;40.428;-8.436;2023-05-02T10:37:07;100412.53;;;35.65;70.22
61318;BME280;47201;40.428;-8.436;2023-05-02T10:39:07;100406.56;;;35.78;69.63
61318;BME280;47201;40.428;-8.436;2023-05-02T10:41:09;100416.97;;;35.49;68.87
61318;BME280;47201;40.428;-8.436;2023-05-02T10:43:14;100407.16;;;34.99;70.45
61318;BME280;47201;40.428;-8.436;2023-05-02T10:45:37;100399.66;;;34.68;71.47
61318;BME280;47201;40.428;-8.436;2023-05-02T10:47:37;100398.50;;;35.03;70.24
61318;BME280;47201;40.428;-8.436;2023-05-02T10:49:48;100393.63;;;35.71;68.99
61318;BME280;47201;40.428;-8.436;2023-05-02T10:51:48;100392.88;;;36.02;68.75
61318;BME280;47201;40.428;-8.436;2023-05-02T10:53:49;100382.75;;;36.19;68.39
61318;BME280;47201;40.428;-8.436;2023-05-02T10:56:13;100387.59;;;36.41;68.88
61318;BME280;47201;40.428;-8.436;2023-05-02T11:00:21;100389.41;;;36.48;68.30
61318;BME280;47201;40.428;-8.436;2023-05-02T11:13:47;100384.13;;;36.47;68.58
61318;BME280;47201;40.428;-8.436;2023-05-02T11:18:07;100381.59;;;36.14;69.17
61318;BME280;47201;40.428;-8.436;2023-05-02T11:26:40;100374.66;;;35.63;70.57
61318;BME280;47201;40.428;-8.436;2023-05-02T11:28:42;100370.72;;;36.14;70.57